sensor_id;sensor_type;location;lat;lon;timestamp;P1;durP1;ratioP1;P2;durP2;ratioP2
75021;SDS011;63583;49.976;20.182;2024-01-10T00:00:01;21.52;;;15.52;;
75021;SDS011;63583;49.976;20.182;2024-01-10T00:02:28;17.52;;;12.35;;
75021;SDS011;63583;49.976;20.182;2024-01-10T00:04:54;23.60;;;11.20;;
75021;SDS011;63583;49.976;20.182;2024-01-10T00:07:20;21.95;;;12.13;;
75021;SDS011;63583;49.976;20.182;2024-01-10T00:09:46;20.92;;;10.63;;
75021;SDS011;63583;49.976;20.182;2024-01-10T00:12:12;27.95;;;15.00;;
75021;SDS011;63583;49.976;20.182;2024-01-10T00:14:38;39.92;;;12.65;;
75021;SDS011;63583;49.976;20.182;2024-01-10T00:17:03;26.30;;;14.07;;
75021;SDS011;63583;49.976;20.182;2024-01-10T00:19:30;10.98;;;9.25;;
75021;SDS011;63583;49.976;20.182;2024-01-10T00:21:56;34.85;;;15.40;;
75021;SDS011;63583;49.976;20.182;2024-01-10T00:24:22;36.60;;;17.17;;
75021;SDS011;63583;49.976;20.182;2024-01-10T00:26:47;24.08;;;13.88;;
75021;SDS011;63583;49.976;20.182;2024-01-10T00:29:13;24.55;;;15.05;;
75021;SDS011;63583;49.976;20.182;2024-01-10T00:31:39;45.05;;;20.25;;
75021;SDS011;63583;49.976;20.182;2024-01-10T00:34:05;32.97;;;17.20;;
75021;SDS011;63583;49.976;20.182;2024-01-10T00:36:31;33.58;;;15.63;;
75021;SDS011;63583;49.976;20.182;2024-01-10T00:38:57;31.77;;;17.05;;
75021;SDS011;63583;49.976;20.182;2024-01-10T00:41:22;31.13;;;13.30;;
75021;SDS011;63583;49.976;20.182;2024-01-10T00:43:48;29.30;;;16.20;;
75021;SDS011;63583;49.976;20.182;2024-01-10T00:46:14;30.33;;;14.27;;
75021;SDS011;63583;49.976;20.182;2024-01-10T00:48:40;42.65;;;20.38;;
75021;SDS011;63583;49.976;20.182;2024-01-10T00:51:06;30.42;;;17.27;;
75021;SDS011;63583;49.976;20.182;2024-01-10T00:53:34;43.10;;;18.50;;
75021;SDS011;63583;49.976;20.182;2024-01-10T00:56:00;44.22;;;22.23;;
75021;SDS011;63583;49.976;20.182;2024-01-10T00:58:26;41.75;;;18.13;;
75021;SDS011;63583;49.976;20.182;2024-01-10T01:00:52;36.85;;;19.10;;
75021;SDS011;63583;49.976;20.182;2024-01-10T01:03:18;36.08;;;19.35;;
75021;SDS011;63583;49.976;20.182;2024-01-10T01:05:43;41.20;;;21.02;;
75021;SDS011;63583;49.976;20.182;2024-01-10T01:08:09;46.97;;;18.88;;
75021;SDS011;63583;49.976;20.182;2024-01-10T01:10:35;39.50;;;17.42;;
75021;SDS011;63583;49.976;20.182;2024-01-10T01:13:01;37.05;;;16.30;;
75021;SDS011;63583;49.976;20.182;2024-01-10T01:15:26;26.50;;;16.65;;
75021;SDS011;63583;49.976;20.182;2024-01-10T01:17:52;41.55;;;19.10;;
75021;SDS011;63583;49.976;20.182;2024-01-10T01:20:17;28.05;;;15.45;;
75021;SDS011;63583;49.976;20.182;2024-01-10T01:22:43;34.85;;;16.42;;
75021;SDS011;63583;49.976;20.182;2024-01-10T01:25:09;56.65;;;19.65;;
75021;SDS011;63583;49.976;20.182;2024-01-10T01:27:35;41.28;;;18.45;;
75021;SDS011;63583;49.976;20.182;2024-01-10T01:30:00;29.45;;;16.60;;
75021;SDS011;63583;49.976;20.182;2024-01-10T01:32:26;32.47;;;14.02;;
75021;SDS011;63583;49.976;20.182;2024-01-10T01:34:52;31.63;;;12.60;;
75021;SDS011;63583;49.976;20.182;2024-01-10T01:37:18;23.13;;;14.57;;
75021;SDS011;63583;49.976;20.182;2024-01-10T01:39:43;30.73;;;15.88;;
75021;SDS011;63583;49.976;20.182;2024-01-10T01:42:09;24.52;;;15.18;;
75021;SDS011;63583;49.976;20.182;2024-01-10T01:44:35;28.27;;;13.90;;
75021;SDS011;63583;49.976;20.182;2024-01-10T01:47:01;20.95;;;13.95;;
75021;SDS011;63583;49.976;20.182;2024-01-10T01:49:28;34.22;;;17.50;;
75021;SDS011;63583;49.976;20.182;2024-01-10T01:51:54;40.42;;;19.55;;
75021;SDS011;63583;49.976;20.182;2024-01-10T01:54:20;33.15;;;14.43;;
75021;SDS011;63583;49.976;20.182;2024-01-10T01:56:47;32.03;;;16.75;;
75021;SDS011;63583;49.976;20.182;2024-01-10T01:59:14;39.85;;;18.77;;
75021;SDS011;63583;49.976;20.182;2024-01-10T02:01:40;31.95;;;15.10;;
75021;SDS011;63583;49.976;20.182;2024-01-10T02:04:06;35.60;;;20.33;;
75021;SDS011;63583;49.976;20.182;2024-01-10T02:06:32;34.95;;;17.63;;
75021;SDS011;63583;49.976;20.182;2024-01-10T02:08:58;21.30;;;13.70;;
75021;SDS011;63583;49.976;20.182;2024-01-10T02:11:24;32.28;;;14.80;;
75021;SDS011;63583;49.976;20.182;2024-01-10T02:13:50;25.67;;;14.13;;
75021;SDS011;63583;49.976;20.182;2024-01-10T02:16:19;35.97;;;18.75;;
75021;SDS011;63583;49.976;20.182;2024-01-10T02:18:49;25.05;;;13.65;;
75021;SDS011;63583;49.976;20.182;2024-01-10T02:21:16;24.20;;;12.25;;
75021;SDS011;63583;49.976;20.182;2024-01-10T02:23:46;38.17;;;17.33;;
75021;SDS011;63583;49.976;20.182;2024-01-10T02:26:11;29.23;;;13.82;;
75021;SDS011;63583;49.976;20.182;2024-01-10T02:28:37;31.20;;;17.48;;
75021;SDS011;63583;49.976;20.182;2024-01-10T02:31:03;39.78;;;16.67;;
75021;SDS011;63583;49.976;20.182;2024-01-10T02:33:29;30.70;;;13.80;;
75021;SDS011;63583;49.976;20.182;2024-01-10T02:35:55;18.25;;;11.40;;
75021;SDS011;63583;49.976;20.182;2024-01-10T02:38:20;29.88;;;12.48;;
75021;SDS011;63583;49.976;20.182;2024-01-10T02:40:49;19.83;;;9.70;;
75021;SDS011;63583;49.976;20.182;2024-01-10T02:43:15;33.95;;;13.48;;
75021;SDS011;63583;49.976;20.182;2024-01-10T02:45:41;31.17;;;13.48;;
75021;SDS011;63583;49.976;20.182;2024-01-10T02:48:07;21.90;;;12.63;;
75021;SDS011;63583;49.976;20.182;2024-01-10T02:50:33;34.17;;;15.27;;
75021;SDS011;63583;49.976;20.182;2024-01-10T02:52:58;33.72;;;14.60;;
75021;SDS011;63583;49.976;20.182;2024-01-10T02:55:24;47.10;;;19.95;;
75021;SDS011;63583;49.976;20.182;2024-01-10T02:57:50;40.45;;;19.75;;
75021;SDS011;63583;49.976;20.182;2024-01-10T03:00:16;33.00;;;14.63;;
75021;SDS011;63583;49.976;20.182;2024-01-10T03:02:41;29.33;;;12.30;;
75021;SDS011;63583;49.976;20.182;2024-01-10T03:05:07;43.88;;;16.45;;
75021;SDS011;63583;49.976;20.182;2024-01-10T03:07:33;30.17;;;14.90;;
75021;SDS011;63583;49.976;20.182;2024-01-10T03:09:59;39.55;;;17.50;;
75021;SDS011;63583;49.976;20.182;2024-01-10T03:12:26;37.97;;;17.98;;
75021;SDS011;63583;49.976;20.182;2024-01-10T03:14:52;30.85;;;13.85;;
75021;SDS011;63583;49.976;20.182;2024-01-10T03:17:17;34.05;;;13.55;;
75021;SDS011;63583;49.976;20.182;2024-01-10T03:19:43;38.92;;;16.35;;
75021;SDS011;63583;49.976;20.182;2024-01-10T03:22:09;49.45;;;17.30;;
75021;SDS011;63583;49.976;20.182;2024-01-10T03:24:37;51.50;;;18.52;;
75021;SDS011;63583;49.976;20.182;2024-01-10T03:27:03;33.83;;;16.40;;
75021;SDS011;63583;49.976;20.182;2024-01-10T03:29:30;50.85;;;20.98;;
75021;SDS011;63583;49.976;20.182;2024-01-10T03:31:55;39.13;;;17.25;;
75021;SDS011;63583;49.976;20.182;2024-01-10T03:34:21;51.65;;;22.10;;
75021;SDS011;63583;49.976;20.182;2024-01-10T03:36:47;66.88;;;23.40;;
75021;SDS011;63583;49.976;20.182;2024-01-10T03:39:13;42.08;;;19.38;;
75021;SDS011;63583;49.976;20.182;2024-01-10T03:41:39;54.40;;;19.52;;
75021;SDS011;63583;49.976;20.182;2024-01-10T03:44:05;26.63;;;12.55;;
75021;SDS011;63583;49.976;20.182;2024-01-10T03:46:30;25.10;;;12.85;;
75021;SDS011;63583;49.976;20.182;2024-01-10T03:48:56;33.63;;;15.38;;
75021;SDS011;63583;49.976;20.182;2024-01-10T03:51:22;27.38;;;11.45;;
75021;SDS011;63583;49.976;20.182;2024-01-10T03:53:49;29.67;;;12.70;;
75021;SDS011;63583;49.976;20.182;2024-01-10T03:56:15;19.05;;;12.10;;
75021;SDS011;63583;49.976;20.182;2024-01-10T03:58:41;31.02;;;14.43;;
75021;SDS011;63583;49.976;20.182;2024-01-10T04:01:07;41.22;;;16.63;;
75021;SDS011;63583;49.976;20.182;2024-01-10T04:03:33;24.98;;;13.95;;
75021;SDS011;63583;49.976;20.182;2024-01-10T04:06:00;28.52;;;14.35;;
75021;SDS011;63583;49.976;20.182;2024-01-10T04:08:26;31.75;;;12.93;;
75021;SDS011;63583;49.976;20.182;2024-01-10T04:10:52;43.35;;;21.88;;
75021;SDS011;63583;49.976;20.182;2024-01-10T04:13:18;34.38;;;15.70;;
75021;SDS011;63583;49.976;20.182;2024-01-10T04:15:43;25.48;;;13.80;;
75021;SDS011;63583;49.976;20.182;2024-01-10T04:18:09;35.22;;;15.75;;
75021;SDS011;63583;49.976;20.182;2024-01-10T04:20:35;40.88;;;16.10;;
75021;SDS011;63583;49.976;20.182;2024-01-10T04:23:01;29.60;;;16.48;;
75021;SDS011;63583;49.976;20.182;2024-01-10T04:25:26;47.72;;;20.80;;
75021;SDS011;63583;49.976;20.182;2024-01-10T04:27:52;42.83;;;16.42;;
75021;SDS011;63583;49.976;20.182;2024-01-10T04:30:18;40.15;;;17.17;;
75021;SDS011;63583;49.976;20.182;2024-01-10T04:32:44;40.67;;;20.73;;
75021;SDS011;63583;49.976;20.182;2024-01-10T04:35:09;40.40;;;17.65;;
75021;SDS011;63583;49.976;20.182;2024-01-10T04:37:35;42.55;;;17.60;;
75021;SDS011;63583;49.976;20.182;2024-01-10T04:40:01;31.25;;;15.52;;
75021;SDS011;63583;49.976;20.182;2024-01-10T04:42:27;36.78;;;16.60;;
75021;SDS011;63583;49.976;20.182;2024-01-10T04:44:52;43.00;;;18.90;;
75021;SDS011;63583;49.976;20.182;2024-01-10T04:47:18;45.15;;;18.27;;
75021;SDS011;63583;49.976;20.182;2024-01-10T04:49:44;31.85;;;17.23;;
75021;SDS011;63583;49.976;20.182;2024-01-10T04:52:10;49.30;;;18.00;;
75021;SDS011;63583;49.976;20.182;2024-01-10T04:54:35;38.88;;;18.23;;
75021;SDS011;63583;49.976;20.182;2024-01-10T04:57:01;32.28;;;14.38;;
75021;SDS011;63583;49.976;20.182;2024-01-10T04:59:27;40.70;;;17.15;;
75021;SDS011;63583;49.976;20.182;2024-01-10T05:01:53;37.95;;;15.30;;
75021;SDS011;63583;49.976;20.182;2024-01-10T05:04:18;37.00;;;17.40;;
75021;SDS011;63583;49.976;20.182;2024-01-10T05:06:44;32.55;;;18.23;;
75021;SDS011;63583;49.976;20.182;2024-01-10T05:09:10;31.40;;;15.32;;
75021;SDS011;63583;49.976;20.182;2024-01-10T05:11:36;36.13;;;19.27;;
75021;SDS011;63583;49.976;20.182;2024-01-10T05:14:02;40.88;;;15.88;;
75021;SDS011;63583;49.976;20.182;2024-01-10T05:16:28;48.60;;;19.80;;
75021;SDS011;63583;49.976;20.182;2024-01-10T05:18:54;43.38;;;20.33;;
75021;SDS011;63583;49.976;20.182;2024-01-10T05:21:20;39.30;;;19.35;;
75021;SDS011;63583;49.976;20.182;2024-01-10T05:23:46;33.40;;;17.48;;
75021;SDS011;63583;49.976;20.182;2024-01-10T05:26:12;47.97;;;17.83;;
75021;SDS011;63583;49.976;20.182;2024-01-10T05:28:38;32.20;;;17.02;;
75021;SDS011;63583;49.976;20.182;2024-01-10T05:31:04;40.60;;;16.42;;
75021;SDS011;63583;49.976;20.182;2024-01-10T05:33:30;43.70;;;19.65;;
75021;SDS011;63583;49.976;20.182;2024-01-10T05:35:56;36.10;;;15.60;;
75021;SDS011;63583;49.976;20.182;2024-01-10T05:38:23;32.15;;;17.55;;
75021;SDS011;63583;49.976;20.182;2024-01-10T05:40:49;35.38;;;15.48;;
75021;SDS011;63583;49.976;20.182;2024-01-10T05:43:15;29.95;;;12.52;;
75021;SDS011;63583;49.976;20.182;2024-01-10T05:45:41;24.02;;;14.32;;
75021;SDS011;63583;49.976;20.182;2024-01-10T05:48:07;40.75;;;20.80;;
75021;SDS011;63583;49.976;20.182;2024-01-10T05:50:33;57.25;;;21.50;;
75021;SDS011;63583;49.976;20.182;2024-01-10T05:52:58;34.97;;;17.67;;
75021;SDS011;63583;49.976;20.182;2024-01-10T05:55:24;34.85;;;17.33;;
75021;SDS011;63583;49.976;20.182;2024-01-10T05:57:50;53.05;;;23.52;;
75021;SDS011;63583;49.976;20.182;2024-01-10T06:00:16;35.97;;;23.00;;
75021;SDS011;63583;49.976;20.182;2024-01-10T06:02:42;30.45;;;17.33;;
75021;SDS011;63583;49.976;20.182;2024-01-10T06:05:08;39.78;;;21.27;;
75021;SDS011;63583;49.976;20.182;2024-01-10T06:07:35;48.53;;;25.15;;
75021;SDS011;63583;49.976;20.182;2024-01-10T06:10:01;36.75;;;21.08;;
75021;SDS011;63583;49.976;20.182;2024-01-10T06:12:27;28.35;;;16.40;;
75021;SDS011;63583;49.976;20.182;2024-01-10T06:14:53;28.13;;;17.80;;
75021;SDS011;63583;49.976;20.182;2024-01-10T06:17:20;53.67;;;27.38;;
75021;SDS011;63583;49.976;20.182;2024-01-10T06:19:45;57.58;;;36.92;;
75021;SDS011;63583;49.976;20.182;2024-01-10T06:22:11;33.13;;;23.25;;
75021;SDS011;63583;49.976;20.182;2024-01-10T06:24:37;40.15;;;18.38;;
75021;SDS011;63583;49.976;20.182;2024-01-10T06:27:03;36.38;;;18.35;;
75021;SDS011;63583;49.976;20.182;2024-01-10T06:29:31;24.30;;;14.00;;
75021;SDS011;63583;49.976;20.182;2024-01-10T06:31:57;39.15;;;21.13;;
75021;SDS011;63583;49.976;20.182;2024-01-10T06:34:23;30.50;;;17.45;;
75021;SDS011;63583;49.976;20.182;2024-01-10T06:36:50;52.38;;;22.08;;
75021;SDS011;63583;49.976;20.182;2024-01-10T06:39:15;43.95;;;19.77;;
75021;SDS011;63583;49.976;20.182;2024-01-10T06:41:42;33.33;;;16.38;;
75021;SDS011;63583;49.976;20.182;2024-01-10T06:44:09;35.78;;;16.48;;
75021;SDS011;63583;49.976;20.182;2024-01-10T06:46:35;40.75;;;19.50;;
75021;SDS011;63583;49.976;20.182;2024-01-10T06:49:01;23.75;;;16.60;;
75021;SDS011;63583;49.976;20.182;2024-01-10T06:51:27;34.35;;;18.77;;
75021;SDS011;63583;49.976;20.182;2024-01-10T06:53:53;33.15;;;15.43;;
75021;SDS011;63583;49.976;20.182;2024-01-10T06:56:19;32.08;;;17.35;;
75021;SDS011;63583;49.976;20.182;2024-01-10T06:58:44;27.52;;;16.17;;
75021;SDS011;63583;49.976;20.182;2024-01-10T07:01:14;25.42;;;16.75;;
75021;SDS011;63583;49.976;20.182;2024-01-10T07:03:40;30.70;;;17.52;;
75021;SDS011;63583;49.976;20.182;2024-01-10T07:06:06;22.90;;;15.30;;
75021;SDS011;63583;49.976;20.182;2024-01-10T07:08:31;50.15;;;27.20;;
75021;SDS011;63583;49.976;20.182;2024-01-10T07:10:57;19.30;;;13.63;;
75021;SDS011;63583;49.976;20.182;2024-01-10T07:13:23;15.68;;;11.77;;
75021;SDS011;63583;49.976;20.182;2024-01-10T07:15:49;27.58;;;13.02;;
75021;SDS011;63583;49.976;20.182;2024-01-10T07:18:17;38.63;;;18.23;;
75021;SDS011;63583;49.976;20.182;2024-01-10T07:20:43;31.02;;;15.57;;
75021;SDS011;63583;49.976;20.182;2024-01-10T07:23:09;41.13;;;14.80;;
75021;SDS011;63583;49.976;20.182;2024-01-10T07:25:35;32.20;;;18.60;;
75021;SDS011;63583;49.976;20.182;2024-01-10T07:28:02;42.15;;;17.25;;
75021;SDS011;63583;49.976;20.182;2024-01-10T07:30:28;42.40;;;19.40;;
75021;SDS011;63583;49.976;20.182;2024-01-10T07:32:58;29.25;;;16.20;;
75021;SDS011;63583;49.976;20.182;2024-01-10T07:35:24;68.55;;;29.45;;
75021;SDS011;63583;49.976;20.182;2024-01-10T07:37:50;46.83;;;24.73;;
75021;SDS011;63583;49.976;20.182;2024-01-10T07:40:17;82.70;;;34.10;;
75021;SDS011;63583;49.976;20.182;2024-01-10T07:42:42;50.50;;;23.35;;
75021;SDS011;63583;49.976;20.182;2024-01-10T07:45:10;48.05;;;22.83;;
75021;SDS011;63583;49.976;20.182;2024-01-10T07:47:37;49.83;;;26.40;;
75021;SDS011;63583;49.976;20.182;2024-01-10T07:50:07;47.35;;;21.10;;
75021;SDS011;63583;49.976;20.182;2024-01-10T07:55:02;27.15;;;15.02;;
75021;SDS011;63583;49.976;20.182;2024-01-10T07:57:35;33.35;;;16.05;;
75021;SDS011;63583;49.976;20.182;2024-01-10T08:00:05;27.13;;;16.85;;
75021;SDS011;63583;49.976;20.182;2024-01-10T08:02:38;44.00;;;16.83;;
75021;SDS011;63583;49.976;20.182;2024-01-10T08:05:06;37.92;;;22.88;;
75021;SDS011;63583;49.976;20.182;2024-01-10T08:07:35;48.28;;;21.23;;
75021;SDS011;63583;49.976;20.182;2024-01-10T08:10:09;77.68;;;28.45;;
75021;SDS011;63583;49.976;20.182;2024-01-10T08:12:36;48.42;;;21.73;;
75021;SDS011;63583;49.976;20.182;2024-01-10T08:15:03;61.75;;;27.60;;
75021;SDS011;63583;49.976;20.182;2024-01-10T08:17:31;52.58;;;26.60;;
75021;SDS011;63583;49.976;20.182;2024-01-10T08:19:59;75.13;;;33.00;;
75021;SDS011;63583;49.976;20.182;2024-01-10T08:22:26;75.90;;;32.80;;
75021;SDS011;63583;49.976;20.182;2024-01-10T08:24:52;55.58;;;25.80;;
75021;SDS011;63583;49.976;20.182;2024-01-10T08:27:18;50.55;;;22.98;;
75021;SDS011;63583;49.976;20.182;2024-01-10T08:29:45;51.78;;;24.58;;
75021;SDS011;63583;49.976;20.182;2024-01-10T08:32:11;35.92;;;18.00;;
75021;SDS011;63583;49.976;20.182;2024-01-10T08:34:42;46.85;;;22.25;;
75021;SDS011;63583;49.976;20.182;2024-01-10T08:37:11;50.28;;;20.70;;
75021;SDS011;63583;49.976;20.182;2024-01-10T08:39:45;57.28;;;25.20;;
75021;SDS011;63583;49.976;20.182;2024-01-10T08:42:11;61.72;;;22.27;;
75021;SDS011;63583;49.976;20.182;2024-01-10T08:44:37;44.97;;;23.38;;
75021;SDS011;63583;49.976;20.182;2024-01-10T08:47:03;55.45;;;22.90;;
75021;SDS011;63583;49.976;20.182;2024-01-10T08:49:31;54.20;;;24.75;;
75021;SDS011;63583;49.976;20.182;2024-01-10T08:51:57;65.95;;;28.05;;
75021;SDS011;63583;49.976;20.182;2024-01-10T08:54:24;27.40;;;12.40;;
75021;SDS011;63583;49.976;20.182;2024-01-10T08:56:50;73.82;;;32.42;;
75021;SDS011;63583;49.976;20.182;2024-01-10T08:59:19;55.75;;;27.60;;
75021;SDS011;63583;49.976;20.182;2024-01-10T09:01:44;61.83;;;28.33;;
75021;SDS011;63583;49.976;20.182;2024-01-10T09:04:10;73.32;;;32.10;;
75021;SDS011;63583;49.976;20.182;2024-01-10T09:06:36;50.90;;;25.23;;
75021;SDS011;63583;49.976;20.182;2024-01-10T09:09:02;50.85;;;25.40;;
75021;SDS011;63583;49.976;20.182;2024-01-10T09:11:28;62.90;;;29.30;;
75021;SDS011;63583;49.976;20.182;2024-01-10T09:14:03;61.65;;;29.27;;
75021;SDS011;63583;49.976;20.182;2024-01-10T09:16:28;77.47;;;35.58;;
75021;SDS011;63583;49.976;20.182;2024-01-10T09:18:54;80.10;;;35.40;;
75021;SDS011;63583;49.976;20.182;2024-01-10T09:21:22;78.75;;;33.58;;
75021;SDS011;63583;49.976;20.182;2024-01-10T09:23:50;80.93;;;34.65;;
75021;SDS011;63583;49.976;20.182;2024-01-10T09:26:17;85.20;;;38.35;;
75021;SDS011;63583;49.976;20.182;2024-01-10T09:28:44;82.53;;;31.20;;
75021;SDS011;63583;49.976;20.182;2024-01-10T09:31:10;62.35;;;28.48;;
75021;SDS011;63583;49.976;20.182;2024-01-10T09:33:36;58.10;;;25.38;;
75021;SDS011;63583;49.976;20.182;2024-01-10T09:36:02;65.03;;;26.27;;
75021;SDS011;63583;49.976;20.182;2024-01-10T09:38:29;69.20;;;28.52;;
75021;SDS011;63583;49.976;20.182;2024-01-10T09:40:57;70.07;;;29.88;;
75021;SDS011;63583;49.976;20.182;2024-01-10T09:43:32;65.97;;;29.02;;
75021;SDS011;63583;49.976;20.182;2024-01-10T09:46:02;64.72;;;28.15;;
75021;SDS011;63583;49.976;20.182;2024-01-10T09:48:29;87.20;;;37.20;;
75021;SDS011;63583;49.976;20.182;2024-01-10T09:50:55;87.55;;;36.13;;
75021;SDS011;63583;49.976;20.182;2024-01-10T09:53:22;96.88;;;38.38;;
75021;SDS011;63583;49.976;20.182;2024-01-10T09:55:49;81.72;;;36.17;;
75021;SDS011;63583;49.976;20.182;2024-01-10T09:58:15;87.85;;;40.35;;
75021;SDS011;63583;49.976;20.182;2024-01-10T10:00:41;102.75;;;41.20;;
75021;SDS011;63583;49.976;20.182;2024-01-10T10:03:08;91.32;;;40.85;;
75021;SDS011;63583;49.976;20.182;2024-01-10T10:05:41;99.43;;;40.05;;
75021;SDS011;63583;49.976;20.182;2024-01-10T10:08:07;93.03;;;38.45;;
75021;SDS011;63583;49.976;20.182;2024-01-10T10:10:35;99.63;;;40.67;;
75021;SDS011;63583;49.976;20.182;2024-01-10T10:13:01;100.30;;;41.65;;
75021;SDS011;63583;49.976;20.182;2024-01-10T10:15:27;94.20;;;39.55;;
75021;SDS011;63583;49.976;20.182;2024-01-10T10:17:53;92.13;;;39.70;;
75021;SDS011;63583;49.976;20.182;2024-01-10T10:20:20;85.97;;;38.28;;
75021;SDS011;63583;49.976;20.182;2024-01-10T10:25:33;85.75;;;36.45;;
75021;SDS011;63583;49.976;20.182;2024-01-10T10:28:00;83.90;;;38.45;;
75021;SDS011;63583;49.976;20.182;2024-01-10T10:30:28;93.60;;;40.38;;
75021;SDS011;63583;49.976;20.182;2024-01-10T10:32:55;94.35;;;42.25;;
75021;SDS011;63583;49.976;20.182;2024-01-10T10:35:21;104.43;;;44.03;;
75021;SDS011;63583;49.976;20.182;2024-01-10T10:37:51;101.00;;;44.45;;
75021;SDS011;63583;49.976;20.182;2024-01-10T10:40:18;118.88;;;45.97;;
75021;SDS011;63583;49.976;20.182;2024-01-10T10:42:45;108.07;;;43.90;;
75021;SDS011;63583;49.976;20.182;2024-01-10T10:45:19;97.07;;;41.17;;
75021;SDS011;63583;49.976;20.182;2024-01-10T10:47:45;103.40;;;44.33;;
75021;SDS011;63583;49.976;20.182;2024-01-10T10:50:21;117.32;;;48.22;;
75021;SDS011;63583;49.976;20.182;2024-01-10T10:52:48;95.65;;;39.38;;
75021;SDS011;63583;49.976;20.182;2024-01-10T10:55:15;116.00;;;47.50;;
75021;SDS011;63583;49.976;20.182;2024-01-10T10:57:46;121.18;;;50.53;;
75021;SDS011;63583;49.976;20.182;2024-01-10T11:00:12;114.93;;;48.38;;
75021;SDS011;63583;49.976;20.182;2024-01-10T11:02:41;112.55;;;46.50;;
75021;SDS011;63583;49.976;20.182;2024-01-10T11:05:07;122.97;;;46.60;;
75021;SDS011;63583;49.976;20.182;2024-01-10T11:07:35;110.88;;;45.63;;
75021;SDS011;63583;49.976;20.182;2024-01-10T11:10:02;106.35;;;44.78;;
75021;SDS011;63583;49.976;20.182;2024-01-10T11:12:34;111.93;;;48.47;;
75021;SDS011;63583;49.976;20.182;2024-01-10T11:15:34;110.95;;;46.90;;
75021;SDS011;63583;49.976;20.182;2024-01-10T11:23:34;99.95;;;42.45;;
75021;SDS011;63583;49.976;20.182;2024-01-10T11:26:04;97.63;;;45.28;;
75021;SDS011;63583;49.976;20.182;2024-01-10T11:28:31;118.70;;;49.45;;
75021;SDS011;63583;49.976;20.182;2024-01-10T11:30:57;111.85;;;46.38;;
75021;SDS011;63583;49.976;20.182;2024-01-10T11:33:30;106.40;;;44.85;;
75021;SDS011;63583;49.976;20.182;2024-01-10T11:38:59;99.72;;;44.38;;
75021;SDS011;63583;49.976;20.182;2024-01-10T11:41:31;94.38;;;41.20;;
75021;SDS011;63583;49.976;20.182;2024-01-10T11:46:48;98.70;;;42.20;;
75021;SDS011;63583;49.976;20.182;2024-01-10T11:49:16;99.10;;;40.42;;
75021;SDS011;63583;49.976;20.182;2024-01-10T11:51:48;88.60;;;36.88;;
75021;SDS011;63583;49.976;20.182;2024-01-10T11:57:12;85.55;;;35.22;;
75021;SDS011;63583;49.976;20.182;2024-01-10T11:59:51;82.30;;;33.85;;
75021;SDS011;63583;49.976;20.182;2024-01-10T12:02:21;81.82;;;35.03;;
75021;SDS011;63583;49.976;20.182;2024-01-10T12:04:50;86.78;;;32.30;;
75021;SDS011;63583;49.976;20.182;2024-01-10T12:07:16;82.55;;;33.63;;
75021;SDS011;63583;49.976;20.182;2024-01-10T12:12:14;86.53;;;35.33;;
75021;SDS011;63583;49.976;20.182;2024-01-10T12:14:42;94.75;;;37.78;;
75021;SDS011;63583;49.976;20.182;2024-01-10T12:17:09;105.85;;;44.22;;
75021;SDS011;63583;49.976;20.182;2024-01-10T12:19:36;122.95;;;48.20;;
75021;SDS011;63583;49.976;20.182;2024-01-10T12:22:03;106.32;;;45.03;;
75021;SDS011;63583;49.976;20.182;2024-01-10T12:24:49;101.13;;;40.13;;
75021;SDS011;63583;49.976;20.182;2024-01-10T12:27:18;98.50;;;38.88;;
75021;SDS011;63583;49.976;20.182;2024-01-10T12:29:47;106.22;;;42.42;;
75021;SDS011;63583;49.976;20.182;2024-01-10T12:32:18;87.22;;;39.95;;
75021;SDS011;63583;49.976;20.182;2024-01-10T12:34:46;100.72;;;37.70;;
75021;SDS011;63583;49.976;20.182;2024-01-10T12:37:14;100.05;;;40.05;;
75021;SDS011;63583;49.976;20.182;2024-01-10T12:39:40;95.88;;;38.75;;
75021;SDS011;63583;49.976;20.182;2024-01-10T12:42:06;82.80;;;36.15;;
75021;SDS011;63583;49.976;20.182;2024-01-10T12:44:32;89.88;;;41.75;;
75021;SDS011;63583;49.976;20.182;2024-01-10T12:46:59;85.13;;;34.20;;
75021;SDS011;63583;49.976;20.182;2024-01-10T12:49:26;75.57;;;33.45;;
75021;SDS011;63583;49.976;20.182;2024-01-10T12:51:52;80.55;;;34.13;;
75021;SDS011;63583;49.976;20.182;2024-01-10T12:54:19;83.40;;;36.45;;
75021;SDS011;63583;49.976;20.182;2024-01-10T12:56:46;82.82;;;33.35;;
75021;SDS011;63583;49.976;20.182;2024-01-10T12:59:12;85.95;;;34.90;;
75021;SDS011;63583;49.976;20.182;2024-01-10T13:01:39;86.30;;;35.90;;
75021;SDS011;63583;49.976;20.182;2024-01-10T13:04:05;99.05;;;43.33;;
75021;SDS011;63583;49.976;20.182;2024-01-10T13:06:32;105.28;;;44.33;;
75021;SDS011;63583;49.976;20.182;2024-01-10T13:08:57;112.18;;;45.60;;
75021;SDS011;63583;49.976;20.182;2024-01-10T13:11:23;107.07;;;45.75;;
75021;SDS011;63583;49.976;20.182;2024-01-10T13:13:49;111.07;;;45.90;;
75021;SDS011;63583;49.976;20.182;2024-01-10T13:16:15;113.25;;;45.75;;
75021;SDS011;63583;49.976;20.182;2024-01-10T13:18:42;112.28;;;44.75;;
75021;SDS011;63583;49.976;20.182;2024-01-10T13:21:12;107.55;;;47.15;;
75021;SDS011;63583;49.976;20.182;2024-01-10T13:23:38;123.28;;;47.72;;
75021;SDS011;63583;49.976;20.182;2024-01-10T13:26:08;131.57;;;53.03;;
75021;SDS011;63583;49.976;20.182;2024-01-10T13:28:36;118.65;;;49.83;;
75021;SDS011;63583;49.976;20.182;2024-01-10T13:31:03;131.25;;;55.17;;
75021;SDS011;63583;49.976;20.182;2024-01-10T13:33:31;122.72;;;55.85;;
75021;SDS011;63583;49.976;20.182;2024-01-10T13:35:58;119.30;;;50.75;;
75021;SDS011;63583;49.976;20.182;2024-01-10T13:38:25;126.80;;;52.42;;
75021;SDS011;63583;49.976;20.182;2024-01-10T13:40:54;136.00;;;50.88;;
75021;SDS011;63583;49.976;20.182;2024-01-10T13:43:23;125.03;;;51.83;;
75021;SDS011;63583;49.976;20.182;2024-01-10T13:45:49;117.53;;;48.35;;
75021;SDS011;63583;49.976;20.182;2024-01-10T13:48:16;135.07;;;53.60;;
75021;SDS011;63583;49.976;20.182;2024-01-10T13:50:46;120.68;;;50.70;;
75021;SDS011;63583;49.976;20.182;2024-01-10T13:53:12;128.05;;;52.33;;
75021;SDS011;63583;49.976;20.182;2024-01-10T13:55:38;126.78;;;55.13;;
75021;SDS011;63583;49.976;20.182;2024-01-10T13:58:04;137.90;;;53.60;;
75021;SDS011;63583;49.976;20.182;2024-01-10T14:00:30;120.80;;;49.00;;
75021;SDS011;63583;49.976;20.182;2024-01-10T14:02:56;138.82;;;55.80;;
75021;SDS011;63583;49.976;20.182;2024-01-10T14:05:25;131.40;;;56.38;;
75021;SDS011;63583;49.976;20.182;2024-01-10T14:07:51;128.50;;;55.55;;
75021;SDS011;63583;49.976;20.182;2024-01-10T14:10:17;131.32;;;52.83;;
75021;SDS011;63583;49.976;20.182;2024-01-10T14:12:44;130.40;;;50.97;;
75021;SDS011;63583;49.976;20.182;2024-01-10T14:15:11;128.20;;;54.30;;
75021;SDS011;63583;49.976;20.182;2024-01-10T14:17:36;136.85;;;57.63;;
75021;SDS011;63583;49.976;20.182;2024-01-10T14:20:02;141.13;;;56.10;;
75021;SDS011;63583;49.976;20.182;2024-01-10T14:22:29;139.48;;;56.22;;
75021;SDS011;63583;49.976;20.182;2024-01-10T14:24:54;127.05;;;55.65;;